sensor_id;sensor_type;location;lat;lon;timestamp;temperature;humidity
27795;DHT22;15176;50.844;4.412;2023-08-07T00:00:41;14.40;99.90
27795;DHT22;15176;50.844;4.412;2023-08-07T00:03:07;14.20;99.90
27795;DHT22;15176;50.844;4.412;2023-08-07T00:05:32;14.20;99.90
27795;DHT22;15176;50.844;4.412;2023-08-07T00:08:00;14.30;99.90
27795;DHT22;15176;50.844;4.412;2023-08-07T00:10:27;14.40;99.90
27795;DHT22;15176;50.844;4.412;2023-08-07T00:12:52;14.30;99.90
27795;DHT22;15176;50.844;4.412;2023-08-07T00:15:19;14.30;99.90
27795;DHT22;15176;50.844;4.412;2023-08-07T00:17:44;14.30;99.90
27795;DHT22;15176;50.844;4.412;2023-08-07T00:20:10;14.30;99.90
27795;DHT22;15176;50.844;4.412;2023-08-07T00:22:36;14.50;99.90
27795;DHT22;15176;50.844;4.412;2023-08-07T00:25:01;14.40;99.90
27795;DHT22;15176;50.844;4.412;2023-08-07T00:27:27;14.30;99.90
27795;DHT22;15176;50.844;4.412;2023-08-07T00:29:53;14.40;99.90
27795;DHT22;15176;50.844;4.412;2023-08-07T00:32:18;14.40;99.90
27795;DHT22;15176;50.844;4.412;2023-08-07T00:34:44;14.40;99.90
27795;DHT22;15176;50.844;4.412;2023-08-07T00:37:09;14.60;99.90
27795;DHT22;15176;50.844;4.412;2023-08-07T00:39:36;14.60;99.90
27795;DHT22;15176;50.844;4.412;2023-08-07T00:42:02;14.50;99.90
27795;DHT22;15176;50.844;4.412;2023-08-07T00:44:28;14.70;99.90
27795;DHT22;15176;50.844;4.412;2023-08-07T00:46:54;14.60;99.90
27795;DHT22;15176;50.844;4.412;2023-08-07T00:49:20;14.40;99.90
27795;DHT22;15176;50.844;4.412;2023-08-07T00:51:46;14.30;99.90
27795;DHT22;15176;50.844;4.412;2023-08-07T00:54:15;14.40;99.90
27795;DHT22;15176;50.844;4.412;2023-08-07T00:56:44;14.30;99.90
27795;DHT22;15176;50.844;4.412;2023-08-07T00:59:10;14.10;99.90
27795;DHT22;15176;50.844;4.412;2023-08-07T01:01:36;14.10;99.90
27795;DHT22;15176;50.844;4.412;2023-08-07T01:04:02;14.20;99.90
27795;DHT22;15176;50.844;4.412;2023-08-07T01:06:28;14.10;99.90
27795;DHT22;15176;50.844;4.412;2023-08-07T01:08:54;14.30;99.90
27795;DHT22;15176;50.844;4.412;2023-08-07T01:11:48;14.30;99.90
27795;DHT22;15176;50.844;4.412;2023-08-07T01:14:36;14.30;99.90
27795;DHT22;15176;50.844;4.412;2023-08-07T01:17:15;14.30;99.90
27795;DHT22;15176;50.844;4.412;2023-08-07T01:19:41;14.20;99.90
27795;DHT22;15176;50.844;4.412;2023-08-07T01:22:14;14.10;99.90
27795;DHT22;15176;50.844;4.412;2023-08-07T01:24:49;14.40;99.90
27795;DHT22;15176;50.844;4.412;2023-08-07T01:32:14;14.30;99.90
27795;DHT22;15176;50.844;4.412;2023-08-07T01:34:43;14.30;99.90
27795;DHT22;15176;50.844;4.412;2023-08-07T01:37:12;14.50;99.90
27795;DHT22;15176;50.844;4.412;2023-08-07T01:39:39;14.40;99.90
27795;DHT22;15176;50.844;4.412;2023-08-07T01:42:06;14.30;99.90
27795;DHT22;15176;50.844;4.412;2023-08-07T01:44:32;14.10;99.90
27795;DHT22;15176;50.844;4.412;2023-08-07T01:46:58;14.10;99.90
27795;DHT22;15176;50.844;4.412;2023-08-07T01:49:23;14.10;99.90
27795;DHT22;15176;50.844;4.412;2023-08-07T01:51:49;14.00;99.90
27795;DHT22;15176;50.844;4.412;2023-08-07T01:54:15;14.10;99.90
27795;DHT22;15176;50.844;4.412;2023-08-07T01:56:41;13.80;99.90
27795;DHT22;15176;50.844;4.412;2023-08-07T01:59:07;13.80;99.90
27795;DHT22;15176;50.844;4.412;2023-08-07T02:01:33;13.80;99.90
27795;DHT22;15176;50.844;4.412;2023-08-07T02:03:58;13.70;99.90
27795;DHT22;15176;50.844;4.412;2023-08-07T02:06:24;13.60;99.90
27795;DHT22;15176;50.844;4.412;2023-08-07T02:08:49;13.70;99.90
27795;DHT22;15176;50.844;4.412;2023-08-07T02:11:15;13.80;99.90
27795;DHT22;15176;50.844;4.412;2023-08-07T02:13:41;13.80;99.90
27795;DHT22;15176;50.844;4.412;2023-08-07T02:16:07;13.90;99.90
27795;DHT22;15176;50.844;4.412;2023-08-07T02:18:32;14.00;99.90
27795;DHT22;15176;50.844;4.412;2023-08-07T02:20:59;13.90;99.90
27795;DHT22;15176;50.844;4.412;2023-08-07T02:23:24;13.90;99.90
27795;DHT22;15176;50.844;4.412;2023-08-07T02:25:51;13.80;99.90
27795;DHT22;15176;50.844;4.412;2023-08-07T02:28:18;13.70;99.90
27795;DHT22;15176;50.844;4.412;2023-08-07T02:30:45;13.70;99.90
27795;DHT22;15176;50.844;4.412;2023-08-07T02:33:14;13.60;99.90
27795;DHT22;15176;50.844;4.412;2023-08-07T02:35:40;13.70;99.90
27795;DHT22;15176;50.844;4.412;2023-08-07T02:38:05;13.90;99.90
27795;DHT22;15176;50.844;4.412;2023-08-07T02:40:31;13.80;99.90
27795;DHT22;15176;50.844;4.412;2023-08-07T02:42:58;13.60;99.90
27795;DHT22;15176;50.844;4.412;2023-08-07T02:45:23;13.60;99.90
27795;DHT22;15176;50.844;4.412;2023-08-07T02:47:49;13.70;99.90
27795;DHT22;15176;50.844;4.412;2023-08-07T02:50:15;13.80;99.90
27795;DHT22;15176;50.844;4.412;2023-08-07T02:52:40;13.70;99.90
27795;DHT22;15176;50.844;4.412;2023-08-07T02:55:06;13.80;99.90
27795;DHT22;15176;50.844;4.412;2023-08-07T02:57:32;13.60;99.90
27795;DHT22;15176;50.844;4.412;2023-08-07T02:59:58;13.80;99.90
27795;DHT22;15176;50.844;4.412;2023-08-07T03:02:23;13.80;99.90
27795;DHT22;15176;50.844;4.412;2023-08-07T03:04:49;13.70;99.90
27795;DHT22;15176;50.844;4.412;2023-08-07T03:07:15;13.90;99.90
27795;DHT22;15176;50.844;4.412;2023-08-07T03:09:40;13.90;99.90
27795;DHT22;15176;50.844;4.412;2023-08-07T03:12:06;13.70;99.90
27795;DHT22;15176;50.844;4.412;2023-08-07T03:14:32;13.60;99.90
27795;DHT22;15176;50.844;4.412;2023-08-07T03:16:58;13.60;99.90
27795;DHT22;15176;50.844;4.412;2023-08-07T03:19:24;13.70;99.90
27795;DHT22;15176;50.844;4.412;2023-08-07T03:21:49;13.80;99.90
27795;DHT22;15176;50.844;4.412;2023-08-07T03:24:15;14.10;99.90
27795;DHT22;15176;50.844;4.412;2023-08-07T03:26:40;14.10;99.90
27795;DHT22;15176;50.844;4.412;2023-08-07T03:29:07;14.10;99.90
27795;DHT22;15176;50.844;4.412;2023-08-07T03:31:32;13.90;99.90
27795;DHT22;15176;50.844;4.412;2023-08-07T03:33:58;13.70;99.90
27795;DHT22;15176;50.844;4.412;2023-08-07T03:36:24;13.60;99.90
27795;DHT22;15176;50.844;4.412;2023-08-07T03:38:49;13.70;99.90
27795;DHT22;15176;50.844;4.412;2023-08-07T03:41:15;13.70;99.90
27795;DHT22;15176;50.844;4.412;2023-08-07T03:43:41;13.70;99.90
27795;DHT22;15176;50.844;4.412;2023-08-07T03:46:06;13.50;99.90
27795;DHT22;15176;50.844;4.412;2023-08-07T03:48:32;13.50;99.90
27795;DHT22;15176;50.844;4.412;2023-08-07T03:51:07;13.60;99.90
27795;DHT22;15176;50.844;4.412;2023-08-07T03:53:37;13.60;99.90
27795;DHT22;15176;50.844;4.412;2023-08-07T03:56:02;13.80;99.90
27795;DHT22;15176;50.844;4.412;2023-08-07T03:58:29;13.70;99.90
27795;DHT22;15176;50.844;4.412;2023-08-07T04:00:55;13.70;99.90
27795;DHT22;15176;50.844;4.412;2023-08-07T04:03:21;13.40;99.90
27795;DHT22;15176;50.844;4.412;2023-08-07T04:05:51;13.40;99.90
27795;DHT22;15176;50.844;4.412;2023-08-07T04:08:17;13.60;99.90
27795;DHT22;15176;50.844;4.412;2023-08-07T04:10:42;13.70;99.90
27795;DHT22;15176;50.844;4.412;2023-08-07T04:13:08;13.60;99.90
27795;DHT22;15176;50.844;4.412;2023-08-07T04:15:34;13.50;99.90
27795;DHT22;15176;50.844;4.412;2023-08-07T04:18:00;13.50;99.90
27795;DHT22;15176;50.844;4.412;2023-08-07T04:20:26;13.60;99.90
27795;DHT22;15176;50.844;4.412;2023-08-07T04:22:52;13.70;99.90
27795;DHT22;15176;50.844;4.412;2023-08-07T04:25:17;13.80;99.90
27795;DHT22;15176;50.844;4.412;2023-08-07T04:27:43;13.80;99.90
27795;DHT22;15176;50.844;4.412;2023-08-07T04:30:09;13.60;99.90
27795;DHT22;15176;50.844;4.412;2023-08-07T04:32:35;13.70;99.90
27795;DHT22;15176;50.844;4.412;2023-08-07T04:35:01;13.70;99.90
27795;DHT22;15176;50.844;4.412;2023-08-07T04:37:26;13.70;99.90
27795;DHT22;15176;50.844;4.412;2023-08-07T04:39:52;13.80;99.90
27795;DHT22;15176;50.844;4.412;2023-08-07T04:42:19;13.70;99.90
27795;DHT22;15176;50.844;4.412;2023-08-07T04:44:45;13.60;99.90
27795;DHT22;15176;50.844;4.412;2023-08-07T04:47:11;13.50;99.90
27795;DHT22;15176;50.844;4.412;2023-08-07T04:49:36;13.50;99.90
27795;DHT22;15176;50.844;4.412;2023-08-07T04:52:02;13.60;99.90
27795;DHT22;15176;50.844;4.412;2023-08-07T04:54:28;13.60;99.90
27795;DHT22;15176;50.844;4.412;2023-08-07T04:56:53;13.60;99.90
27795;DHT22;15176;50.844;4.412;2023-08-07T04:59:19;13.60;99.90
27795;DHT22;15176;50.844;4.412;2023-08-07T05:01:46;13.70;99.90
27795;DHT22;15176;50.844;4.412;2023-08-07T05:04:12;13.70;99.90
27795;DHT22;15176;50.844;4.412;2023-08-07T05:06:37;13.60;99.90
27795;DHT22;15176;50.844;4.412;2023-08-07T05:09:03;13.60;99.90
27795;DHT22;15176;50.844;4.412;2023-08-07T05:11:29;13.50;99.90
27795;DHT22;15176;50.844;4.412;2023-08-07T05:13:54;13.50;99.90
27795;DHT22;15176;50.844;4.412;2023-08-07T05:16:20;13.60;99.90
27795;DHT22;15176;50.844;4.412;2023-08-07T05:18:46;13.70;99.90
27795;DHT22;15176;50.844;4.412;2023-08-07T05:21:12;13.80;99.90
27795;DHT22;15176;50.844;4.412;2023-08-07T05:23:37;13.90;99.90
27795;DHT22;15176;50.844;4.412;2023-08-07T05:26:04;13.80;99.90
27795;DHT22;15176;50.844;4.412;2023-08-07T05:28:30;13.90;99.90
27795;DHT22;15176;50.844;4.412;2023-08-07T05:30:57;14.00;99.90
27795;DHT22;15176;50.844;4.412;2023-08-07T05:33:23;14.10;99.90
27795;DHT22;15176;50.844;4.412;2023-08-07T05:35:48;14.20;99.90
27795;DHT22;15176;50.844;4.412;2023-08-07T05:38:15;14.10;99.90
27795;DHT22;15176;50.844;4.412;2023-08-07T05:40:41;14.00;99.90
27795;DHT22;15176;50.844;4.412;2023-08-07T05:43:06;14.20;99.90
27795;DHT22;15176;50.844;4.412;2023-08-07T05:45:32;14.20;99.90
27795;DHT22;15176;50.844;4.412;2023-08-07T05:47:58;14.20;99.90
27795;DHT22;15176;50.844;4.412;2023-08-07T05:50:23;14.20;99.90
27795;DHT22;15176;50.844;4.412;2023-08-07T05:52:49;14.30;99.90
27795;DHT22;15176;50.844;4.412;2023-08-07T05:55:14;14.40;99.90
27795;DHT22;15176;50.844;4.412;2023-08-07T05:57:40;14.50;99.90
27795;DHT22;15176;50.844;4.412;2023-08-07T06:00:06;14.50;99.90
27795;DHT22;15176;50.844;4.412;2023-08-07T06:02:33;14.50;99.90
27795;DHT22;15176;50.844;4.412;2023-08-07T06:04:58;14.50;99.90
27795;DHT22;15176;50.844;4.412;2023-08-07T06:07:24;14.70;99.90
27795;DHT22;15176;50.844;4.412;2023-08-07T06:09:50;14.90;99.90
27795;DHT22;15176;50.844;4.412;2023-08-07T06:12:15;14.80;99.90
27795;DHT22;15176;50.844;4.412;2023-08-07T06:14:41;14.80;99.90
27795;DHT22;15176;50.844;4.412;2023-08-07T06:17:06;14.80;99.90
27795;DHT22;15176;50.844;4.412;2023-08-07T06:19:32;14.80;99.90
27795;DHT22;15176;50.844;4.412;2023-08-07T06:21:59;15.00;99.90
27795;DHT22;15176;50.844;4.412;2023-08-07T06:24:25;15.20;99.90
27795;DHT22;15176;50.844;4.412;2023-08-07T06:26:51;15.10;99.90
27795;DHT22;15176;50.844;4.412;2023-08-07T06:29:16;15.20;99.90
27795;DHT22;15176;50.844;4.412;2023-08-07T06:31:42;15.10;99.90
27795;DHT22;15176;50.844;4.412;2023-08-07T06:34:08;15.30;99.90
27795;DHT22;15176;50.844;4.412;2023-08-07T06:36:34;15.30;99.90
27795;DHT22;15176;50.844;4.412;2023-08-07T06:39:00;15.40;99.90
27795;DHT22;15176;50.844;4.412;2023-08-07T06:41:25;15.40;99.90
27795;DHT22;15176;50.844;4.412;2023-08-07T06:43:51;15.50;99.90
27795;DHT22;15176;50.844;4.412;2023-08-07T06:46:17;15.60;99.90
27795;DHT22;15176;50.844;4.412;2023-08-07T06:48:43;15.80;99.90
27795;DHT22;15176;50.844;4.412;2023-08-07T06:51:09;16.00;99.90
27795;DHT22;15176;50.844;4.412;2023-08-07T06:53:34;16.00;99.90
27795;DHT22;15176;50.844;4.412;2023-08-07T06:56:00;16.30;99.90
27795;DHT22;15176;50.844;4.412;2023-08-07T06:58:26;16.50;99.90
27795;DHT22;15176;50.844;4.412;2023-08-07T07:00:52;16.60;99.90
27795;DHT22;15176;50.844;4.412;2023-08-07T07:03:17;16.80;99.90
27795;DHT22;15176;50.844;4.412;2023-08-07T07:05:43;17.00;99.90
27795;DHT22;15176;50.844;4.412;2023-08-07T07:08:08;17.10;99.90
27795;DHT22;15176;50.844;4.412;2023-08-07T07:10:34;17.20;99.90
27795;DHT22;15176;50.844;4.412;2023-08-07T07:13:00;17.40;99.90
27795;DHT22;15176;50.844;4.412;2023-08-07T07:15:26;17.30;99.90
27795;DHT22;15176;50.844;4.412;2023-08-07T07:17:51;17.30;99.90
27795;DHT22;15176;50.844;4.412;2023-08-07T07:20:17;17.50;99.90
27795;DHT22;15176;50.844;4.412;2023-08-07T07:22:42;17.70;99.90
27795;DHT22;15176;50.844;4.412;2023-08-07T07:25:08;17.90;99.90
27795;DHT22;15176;50.844;4.412;2023-08-07T07:27:34;18.30;99.90
27795;DHT22;15176;50.844;4.412;2023-08-07T07:30:00;18.30;99.90
27795;DHT22;15176;50.844;4.412;2023-08-07T07:32:26;18.60;99.90
27795;DHT22;15176;50.844;4.412;2023-08-07T07:34:52;18.90;99.90
27795;DHT22;15176;50.844;4.412;2023-08-07T07:37:18;19.00;99.90
27795;DHT22;15176;50.844;4.412;2023-08-07T07:39:44;19.00;99.90
27795;DHT22;15176;50.844;4.412;2023-08-07T07:42:10;19.10;99.90
27795;DHT22;15176;50.844;4.412;2023-08-07T07:44:35;18.90;99.90
27795;DHT22;15176;50.844;4.412;2023-08-07T07:47:02;18.80;99.90
27795;DHT22;15176;50.844;4.412;2023-08-07T07:49:29;18.90;99.90
27795;DHT22;15176;50.844;4.412;2023-08-07T07:51:54;19.10;99.90
27795;DHT22;15176;50.844;4.412;2023-08-07T07:54:20;19.30;99.90
27795;DHT22;15176;50.844;4.412;2023-08-07T07:56:46;19.20;99.90
27795;DHT22;15176;50.844;4.412;2023-08-07T07:59:12;19.50;99.90
27795;DHT22;15176;50.844;4.412;2023-08-07T08:01:38;19.60;99.90
27795;DHT22;15176;50.844;4.412;2023-08-07T08:04:05;19.90;99.90
27795;DHT22;15176;50.844;4.412;2023-08-07T08:06:30;19.90;99.90
27795;DHT22;15176;50.844;4.412;2023-08-07T08:08:56;20.20;99.90
27795;DHT22;15176;50.844;4.412;2023-08-07T08:11:22;20.10;99.90
27795;DHT22;15176;50.844;4.412;2023-08-07T08:13:48;20.10;99.90
27795;DHT22;15176;50.844;4.412;2023-08-07T08:16:14;20.10;99.90
27795;DHT22;15176;50.844;4.412;2023-08-07T08:18:40;20.20;99.90
27795;DHT22;15176;50.844;4.412;2023-08-07T08:21:06;20.10;99.90
27795;DHT22;15176;50.844;4.412;2023-08-07T08:23:32;20.10;99.90
27795;DHT22;15176;50.844;4.412;2023-08-07T08:25:58;20.50;99.90
27795;DHT22;15176;50.844;4.412;2023-08-07T08:28:23;20.60;99.90
27795;DHT22;15176;50.844;4.412;2023-08-07T08:30:49;20.70;99.90
27795;DHT22;15176;50.844;4.412;2023-08-07T08:33:14;20.90;99.90
27795;DHT22;15176;50.844;4.412;2023-08-07T08:35:41;21.00;99.90
27795;DHT22;15176;50.844;4.412;2023-08-07T08:38:08;21.00;99.90
27795;DHT22;15176;50.844;4.412;2023-08-07T08:40:35;21.20;99.90
27795;DHT22;15176;50.844;4.412;2023-08-07T08:43:04;21.40;99.90
27795;DHT22;15176;50.844;4.412;2023-08-07T08:45:31;21.00;99.90
27795;DHT22;15176;50.844;4.412;2023-08-07T08:48:04;21.20;99.90
27795;DHT22;15176;50.844;4.412;2023-08-07T08:50:32;21.10;99.90
27795;DHT22;15176;50.844;4.412;2023-08-07T08:52:58;20.80;99.90
27795;DHT22;15176;50.844;4.412;2023-08-07T08:55:25;20.90;99.90
27795;DHT22;15176;50.844;4.412;2023-08-07T08:57:52;21.00;99.90
27795;DHT22;15176;50.844;4.412;2023-08-07T09:00:23;20.80;99.90
27795;DHT22;15176;50.844;4.412;2023-08-07T09:02:51;20.90;99.90
27795;DHT22;15176;50.844;4.412;2023-08-07T09:05:20;21.10;99.90
27795;DHT22;15176;50.844;4.412;2023-08-07T09:07:49;21.20;99.90
27795;DHT22;15176;50.844;4.412;2023-08-07T09:10:16;21.40;99.90
27795;DHT22;15176;50.844;4.412;2023-08-07T09:12:53;21.60;99.90
27795;DHT22;15176;50.844;4.412;2023-08-07T09:15:20;21.70;99.90
27795;DHT22;15176;50.844;4.412;2023-08-07T09:17:47;21.60;99.90
27795;DHT22;15176;50.844;4.412;2023-08-07T09:20:14;21.40;99.90
27795;DHT22;15176;50.844;4.412;2023-08-07T09:22:40;21.50;99.90
27795;DHT22;15176;50.844;4.412;2023-08-07T09:25:07;21.30;99.90
27795;DHT22;15176;50.844;4.412;2023-08-07T09:27:33;21.20;99.90
27795;DHT22;15176;50.844;4.412;2023-08-07T09:29:59;21.10;99.90
27795;DHT22;15176;50.844;4.412;2023-08-07T09:32:25;21.20;99.90
27795;DHT22;15176;50.844;4.412;2023-08-07T09:34:51;21.30;99.90
27795;DHT22;15176;50.844;4.412;2023-08-07T09:37:20;21.70;99.90
27795;DHT22;15176;50.844;4.412;2023-08-07T09:39:46;21.80;99.90
27795;DHT22;15176;50.844;4.412;2023-08-07T09:42:16;21.60;99.80
27795;DHT22;15176;50.844;4.412;2023-08-07T09:44:43;21.30;99.90
27795;DHT22;15176;50.844;4.412;2023-08-07T09:47:16;21.20;99.90
27795;DHT22;15176;50.844;4.412;2023-08-07T09:49:43;21.10;99.90
27795;DHT22;15176;50.844;4.412;2023-08-07T09:52:11;21.40;99.90
27795;DHT22;15176;50.844;4.412;2023-08-07T09:54:38;21.80;99.90
27795;DHT22;15176;50.844;4.412;2023-08-07T09:57:06;21.60;99.00
27795;DHT22;15176;50.844;4.412;2023-08-07T09:59:33;21.70;99.70
27795;DHT22;15176;50.844;4.412;2023-08-07T10:02:03;21.70;99.90
27795;DHT22;15176;50.844;4.412;2023-08-07T10:04:29;21.90;99.30
27795;DHT22;15176;50.844;4.412;2023-08-07T10:06:56;22.00;97.50
27795;DHT22;15176;50.844;4.412;2023-08-07T10:09:22;22.00;97.30
27795;DHT22;15176;50.844;4.412;2023-08-07T10:11:49;22.40;96.90
27795;DHT22;15176;50.844;4.412;2023-08-07T10:14:16;23.00;94.60
27795;DHT22;15176;50.844;4.412;2023-08-07T10:16:42;23.30;94.00
27795;DHT22;15176;50.844;4.412;2023-08-07T10:19:10;23.10;93.50
27795;DHT22;15176;50.844;4.412;2023-08-07T10:21:38;22.50;94.30
27795;DHT22;15176;50.844;4.412;2023-08-07T10:24:05;22.10;95.70
27795;DHT22;15176;50.844;4.412;2023-08-07T10:26:44;22.20;95.50
27795;DHT22;15176;50.844;4.412;2023-08-07T10:29:15;22.80;96.30
27795;DHT22;15176;50.844;4.412;2023-08-07T10:31:44;23.50;93.10
27795;DHT22;15176;50.844;4.412;2023-08-07T10:34:10;23.80;90.80
27795;DHT22;15176;50.844;4.412;2023-08-07T10:36:36;23.80;90.20
27795;DHT22;15176;50.844;4.412;2023-08-07T10:39:12;23.60;90.10
27795;DHT22;15176;50.844;4.412;2023-08-07T10:41:41;23.50;90.10
27795;DHT22;15176;50.844;4.412;2023-08-07T10:44:18;23.50;91.60
27795;DHT22;15176;50.844;4.412;2023-08-07T10:46:57;23.50;90.70
27795;DHT22;15176;50.844;4.412;2023-08-07T10:49:40;23.10;89.90
27795;DHT22;15176;50.844;4.412;2023-08-07T10:52:11;22.70;91.30
27795;DHT22;15176;50.844;4.412;2023-08-07T10:54:59;23.10;90.60
27795;DHT22;15176;50.844;4.412;2023-08-07T10:57:31;23.50;84.70
27795;DHT22;15176;50.844;4.412;2023-08-07T11:02:28;24.10;86.70
27795;DHT22;15176;50.844;4.412;2023-08-07T11:04:55;24.00;84.70
27795;DHT22;15176;50.844;4.412;2023-08-07T11:07:29;24.00;84.60
27795;DHT22;15176;50.844;4.412;2023-08-07T11:09:55;23.70;87.60
27795;DHT22;15176;50.844;4.412;2023-08-07T11:12:24;23.80;87.40
27795;DHT22;15176;50.844;4.412;2023-08-07T11:14:51;23.60;90.50
27795;DHT22;15176;50.844;4.412;2023-08-07T11:17:18;23.50;92.20
27795;DHT22;15176;50.844;4.412;2023-08-07T11:19:47;23.60;91.40
27795;DHT22;15176;50.844;4.412;2023-08-07T11:22:15;23.40;91.20
27795;DHT22;15176;50.844;4.412;2023-08-07T11:24:42;23.50;91.20
27795;DHT22;15176;50.844;4.412;2023-08-07T11:27:08;23.30;92.10
27795;DHT22;15176;50.844;4.412;2023-08-07T11:29:35;23.10;91.10
27795;DHT22;15176;50.844;4.412;2023-08-07T11:32:00;22.50;91.40
27795;DHT22;15176;50.844;4.412;2023-08-07T11:34:26;22.10;92.50
27795;DHT22;15176;50.844;4.412;2023-08-07T11:36:52;21.90;92.60
27795;DHT22;15176;50.844;4.412;2023-08-07T11:39:20;21.70;94.70
27795;DHT22;15176;50.844;4.412;2023-08-07T11:41:46;21.50;95.40
27795;DHT22;15176;50.844;4.412;2023-08-07T11:44:12;21.90;95.40
27795;DHT22;15176;50.844;4.412;2023-08-07T11:46:38;22.20;96.40
27795;DHT22;15176;50.844;4.412;2023-08-07T11:49:04;22.50;93.80
27795;DHT22;15176;50.844;4.412;2023-08-07T11:51:33;22.30;93.70
27795;DHT22;15176;50.844;4.412;2023-08-07T11:53:59;22.20;94.40
27795;DHT22;15176;50.844;4.412;2023-08-07T11:56:25;22.10;93.80
27795;DHT22;15176;50.844;4.412;2023-08-07T11:58:52;22.30;93.80
27795;DHT22;15176;50.844;4.412;2023-08-07T12:01:38;22.00;94.60
27795;DHT22;15176;50.844;4.412;2023-08-07T12:06:31;22.10;96.70
27795;DHT22;15176;50.844;4.412;2023-08-07T12:08:57;22.50;96.90
27795;DHT22;15176;50.844;4.412;2023-08-07T12:11:23;22.80;94.50
27795;DHT22;15176;50.844;4.412;2023-08-07T12:13:50;23.10;94.10
27795;DHT22;15176;50.844;4.412;2023-08-07T12:16:16;22.80;92.80
27795;DHT22;15176;50.844;4.412;2023-08-07T12:18:47;22.90;92.80
27795;DHT22;15176;50.844;4.412;2023-08-07T12:21:18;23.20;92.30
27795;DHT22;15176;50.844;4.412;2023-08-07T12:23:45;23.80;92.30
27795;DHT22;15176;50.844;4.412;2023-08-07T12:26:13;24.30;90.70
27795;DHT22;15176;50.844;4.412;2023-08-07T12:28:39;24.70;87.10
27795;DHT22;15176;50.844;4.412;2023-08-07T12:31:05;24.50;86.60
27795;DHT22;15176;50.844;4.412;2023-08-07T12:33:32;23.90;86.30
27795;DHT22;15176;50.844;4.412;2023-08-07T12:35:59;23.60;90.30
27795;DHT22;15176;50.844;4.412;2023-08-07T12:38:25;23.30;91.10
27795;DHT22;15176;50.844;4.412;2023-08-07T12:40:51;22.90;93.00
27795;DHT22;15176;50.844;4.412;2023-08-07T12:43:17;23.50;92.10
27795;DHT22;15176;50.844;4.412;2023-08-07T12:45:43;23.10;91.90
27795;DHT22;15176;50.844;4.412;2023-08-07T12:48:09;22.90;92.10
27795;DHT22;15176;50.844;4.412;2023-08-07T12:50:34;22.70;92.80
27795;DHT22;15176;50.844;4.412;2023-08-07T12:53:00;22.70;93.10
27795;DHT22;15176;50.844;4.412;2023-08-07T12:55:26;22.70;93.10
27795;DHT22;15176;50.844;4.412;2023-08-07T12:57:54;22.80;95.00
27795;DHT22;15176;50.844;4.412;2023-08-07T13:00:20;23.00;93.90
27795;DHT22;15176;50.844;4.412;2023-08-07T13:02:48;22.70;94.00
27795;DHT22;15176;50.844;4.412;2023-08-07T13:05:15;22.50;94.30
27795;DHT22;15176;50.844;4.412;2023-08-07T13:07:43;22.70;95.20
27795;DHT22;15176;50.844;4.412;2023-08-07T13:10:11;23.20;93.60
27795;DHT22;15176;50.844;4.412;2023-08-07T13:12:38;23.80;92.10
27795;DHT22;15176;50.844;4.412;2023-08-07T13:15:06;24.10;91.40
27795;DHT22;15176;50.844;4.412;2023-08-07T13:17:33;23.60;89.90
27795;DHT22;15176;50.844;4.412;2023-08-07T13:19:59;23.20;91.40
27795;DHT22;15176;50.844;4.412;2023-08-07T13:22:25;22.70;94.20
27795;DHT22;15176;50.844;4.412;2023-08-07T13:24:52;22.70;93.30
27795;DHT22;15176;50.844;4.412;2023-08-07T13:27:17;22.90;93.70
27795;DHT22;15176;50.844;4.412;2023-08-07T13:29:44;23.20;93.30
27795;DHT22;15176;50.844;4.412;2023-08-07T13:32:09;23.50;92.60
27795;DHT22;15176;50.844;4.412;2023-08-07T13:34:36;23.60;91.80
27795;DHT22;15176;50.844;4.412;2023-08-07T13:37:03;23.50;91.80
27795;DHT22;15176;50.844;4.412;2023-08-07T13:39:28;23.20;91.10
27795;DHT22;15176;50.844;4.412;2023-08-07T13:41:54;23.30;90.40
27795;DHT22;15176;50.844;4.412;2023-08-07T13:44:20;23.30;90.80
27795;DHT22;15176;50.844;4.412;2023-08-07T13:46:46;23.60;90.20
27795;DHT22;15176;50.844;4.412;2023-08-07T13:49:13;23.70;90.60
27795;DHT22;15176;50.844;4.412;2023-08-07T13:51:40;23.70;90.10
27795;DHT22;15176;50.844;4.412;2023-08-07T13:54:05;23.80;86.00
27795;DHT22;15176;50.844;4.412;2023-08-07T13:56:31;24.20;87.70
27795;DHT22;15176;50.844;4.412;2023-08-07T13:58:57;24.30;84.10
27795;DHT22;15176;50.844;4.412;2023-08-07T14:01:22;24.40;88.00
27795;DHT22;15176;50.844;4.412;2023-08-07T14:03:48;24.10;85.90
27795;DHT22;15176;50.844;4.412;2023-08-07T14:06:15;24.00;85.10
27795;DHT22;15176;50.844;4.412;2023-08-07T14:08:41;23.80;88.20
27795;DHT22;15176;50.844;4.412;2023-08-07T14:11:06;23.60;88.20
27795;DHT22;15176;50.844;4.412;2023-08-07T14:13:35;23.20;89.40
27795;DHT22;15176;50.844;4.412;2023-08-07T14:16:01;23.40;86.70
27795;DHT22;15176;50.844;4.412;2023-08-07T14:18:27;22.60;88.60
27795;DHT22;15176;50.844;4.412;2023-08-07T14:20:54;22.50;89.60
27795;DHT22;15176;50.844;4.412;2023-08-07T14:23:19;22.50;90.70
27795;DHT22;15176;50.844;4.412;2023-08-07T14:25:45;22.70;91.40
27795;DHT22;15176;50.844;4.412;2023-08-07T14:28:14;22.50;91.50
27795;DHT22;15176;50.844;4.412;2023-08-07T14:30:39;22.10;91.70
27795;DHT22;15176;50.844;4.412;2023-08-07T14:33:05;22.00;93.10
27795;DHT22;15176;50.844;4.412;2023-08-07T14:35:31;22.40;92.40
27795;DHT22;15176;50.844;4.412;2023-08-07T14:37:56;22.60;92.00
27795;DHT22;15176;50.844;4.412;2023-08-07T14:40:22;22.80;91.80
27795;DHT22;15176;50.844;4.412;2023-08-07T14:42:48;23.00;91.10
27795;DHT22;15176;50.844;4.412;2023-08-07T14:45:13;22.90;92.20
27795;DHT22;15176;50.844;4.412;2023-08-07T14:47:41;23.20;93.50
27795;DHT22;15176;50.844;4.412;2023-08-07T14:50:07;23.60;92.40
27795;DHT22;15176;50.844;4.412;2023-08-07T14:52:33;23.30;90.00
27795;DHT22;15176;50.844;4.412;2023-08-07T14:54:58;23.40;90.30
27795;DHT22;15176;50.844;4.412;2023-08-07T14:57:24;23.40;90.00
27795;DHT22;15176;50.844;4.412;2023-08-07T14:59:50;23.30;90.00
27795;DHT22;15176;50.844;4.412;2023-08-07T15:02:15;23.10;86.10
27795;DHT22;15176;50.844;4.412;2023-08-07T15:04:41;23.10;89.00
27795;DHT22;15176;50.844;4.412;2023-08-07T15:07:07;23.50;86.80
27795;DHT22;15176;50.844;4.412;2023-08-07T15:09:32;23.70;84.40
27795;DHT22;15176;50.844;4.412;2023-08-07T15:11:58;23.50;87.30
27795;DHT22;15176;50.844;4.412;2023-08-07T15:14:23;23.60;87.20
27795;DHT22;15176;50.844;4.412;2023-08-07T15:16:49;23.40;90.10
27795;DHT22;15176;50.844;4.412;2023-08-07T15:19:16;23.50;85.90
27795;DHT22;15176;50.844;4.412;2023-08-07T15:21:41;23.10;86.70
27795;DHT22;15176;50.844;4.412;2023-08-07T15:24:09;23.10;89.10
27795;DHT22;15176;50.844;4.412;2023-08-07T15:26:34;23.10;90.30
27795;DHT22;15176;50.844;4.412;2023-08-07T15:29:00;23.20;88.70
27795;DHT22;15176;50.844;4.412;2023-08-07T15:31:25;23.10;91.50
27795;DHT22;15176;50.844;4.412;2023-08-07T15:33:51;23.50;90.70
27795;DHT22;15176;50.844;4.412;2023-08-07T15:36:18;23.60;90.70